VIDP/DEL METAR and TAF weather

Enter ICAO airport designator
Station Type Date Time Source
VIDP METAR 2021/07/28 19:30 UTC NOAA

VIDP 281930Z 00000KT 2500 BR SCT030 BKN100 26/25 Q0998 NOSIG


Station Type Date Time Source
VIDP Decoded METAR 2021/07/28 19:30 UTC NOAA

New Delhi / Palam, India (VIDP) 28-34N 077-07E 233M
Jul 28, 2021 - 03:30 PM EDT / 2021.07.28 1930 UTC
Wind: Calm:0
Visibility: 1 mile(s):0
Sky conditions: mostly cloudy
Weather: mist
Temperature: 78 F (26 C)
Dew Point: 77 F (25 C)
Relative Humidity: 94%
Pressure (altimeter): 29.47 in. Hg (0998 hPa)
ob: VIDP 281930Z 00000KT 2500 BR SCT030 BKN100 26/25 Q0998 NOSIG
cycle: 19

Station Type Date Time Source
VIDP TAF 2021/07/28 18:18 UTC NOAA

TAF VIDP 281700Z 2818/2924 VRB02KT 2800 BR DZ SCT030 BKN100
TEMPO 2822/2902 23005KT 1500 BR -RA SCT025 FEW035CB OVC090
BECMG 2904/2906 29010KT 3200 BR
TEMPO 2911/2915 2000 -TSRA SCT030 FEW035CB OVC080
BECMG 2917/2919 VRB02KT 2200 BR DZ SCT030 BKN090

Example: see airport list